Flight Track Log - Related Links

Times and Time Zones

All times are in EDT time to prevent confusion due to time zone crossing. See the UAL5911 flight status page for this flight to view local times or setup timezone preferences in your user account.

Time Position Orientation Groundspeed Altitude Reporting Facility
EDT Latitude Longitude Course Direction KTS MPH feet Rate Location/Type
Sat 02:23:31 PM 41.9500 -87.9333 270° West 142 163 3,400  Level Chicago TRACON
Sat 02:24:31 PM 41.9500 -88.0000 270° West 219 252 5,400 2,264 Climbing Chicago TRACON
Sat 02:26:00 PM 41.9667 -88.3577 270° West  Level FlightAware Approximate
Sat 02:26:10 PM 41.9358 -88.1333 262° West 223 257 9,400  Level Chicago Center
Sat 02:27:00 PM 41.9667 -88.4721 270° West  Level FlightAware Approximate
Sat 02:27:12 PM 41.9303 -88.2197 265° West 231 266 11,500  Level Chicago Center
Sat 02:28:00 PM 41.9667 -88.5865 270° West  Level FlightAware Approximate
Sat 02:28:14 PM 41.9233 -88.3119 264° West 244 281 13,800  Level Chicago Center
Sat 02:29:16 PM 41.9153 -88.4231 264° West 250 288 15,800 1,073 Climbing Chicago Center
Sat 02:30:17 PM 41.8878 -88.5200 249° West 278 320 16,000 98 Climbing Chicago Center
Sat 02:31:19 PM 41.8536 -88.6347 248° West 322 371 16,000  Level Chicago Center
Sat 02:32:21 PM 41.8169 -88.7553 248° West 345 397 16,000 -48 Level Chicago Center
Sat 02:33:23 PM 41.7644 -88.8611 236° Southwest 350 403 15,900 -48 Descending Chicago Center
Sat 02:34:25 PM 41.6733 -88.9719 222° Southwest 368 423 15,900  Level Chicago Center
Sat 02:35:27 PM 41.6000 -89.0614 222° Southwest 362 417 15,900 48 Level Chicago Center
Sat 02:36:29 PM 41.5108 -89.1319 211° Southwest 373 429 16,000 -387 Climbing Chicago Center
Sat 02:37:31 PM 41.4111 -89.1992 207° Southwest 376 433 15,100 -919 Descending Chicago Center
Sat 02:38:33 PM 41.3214 -89.2614 208° Southwest 366 421 14,100 -1,024 Descending Chicago Center
Sat 02:39:34 PM 41.2317 -89.3203 206° Southwest 361 415 13,000 -1,024 Descending Chicago Center
Sat 02:40:36 PM 41.1428 -89.3781 206° Southwest 356 410 12,000 -968 Descending Chicago Center
Sat 02:41:38 PM 41.0542 -89.4356 206° Southwest 355 409 11,000 -919 Descending Chicago Center
Sat 02:42:40 PM 40.9569 -89.4400 182° South 349 402 10,100 -726 Descending Chicago Center
Sat 02:43:42 PM 40.8878 -89.4736 200° South 272 313 9,500 -2,177 Descending Chicago Center
Sat 02:44:44 PM 40.8156 -89.5178 205° Southwest 246 283 5,600 -3,097 Descending Chicago Center
Sat 02:45:46 PM 40.7631 -89.5708 217° Southwest 241 277 3,100 -2,419 Descending Chicago Center

Login

Don't have an account? Register now (free) for customized features, flight alerts, and more!